Time;durP1;ratioP1;P1;durP2;ratioP2;P2;SDS_P1;SDS_P2;PMS_P1;PMS_P2;Temp;Humidity;BMP_temperature;BMP_pressure;BME280_temperature;BME280_humidity;BME280_pressure;Samples;Min_cycle;Max_cycle;Signal;HPM_P1;HPM_P2
2021/04/06 00:02:46;;;;;;;16.13;11.98;;;;;;;7.65;100.00;100389.13;5033192;28;20485;-73
2021/04/06 00:05:33;;;;;;;19.05;12.90;;;;;;;7.59;100.00;100377.91;5019659;28;20118;-73
2021/04/06 00:08:19;;;;;;;22.45;14.90;;;;;;;7.55;100.00;100374.47;5035760;28;20025;-73
2021/04/06 00:11:07;;;;;;;23.70;14.88;;;;;;;7.58;100.00;100373.56;5038298;28;20025;-74
2021/04/06 00:13:55;;;;;;;18.02;13.23;;;;;;;7.59;100.00;100378.75;5037000;28;20076;-73
2021/04/06 00:16:43;;;;;;;19.67;13.35;;;;;;;7.71;100.00;100369.94;5037747;28;20025;-74
2021/04/06 00:19:32;;;;;;;18.83;12.85;;;;;;;7.94;100.00;100363.56;5022229;28;20021;-73
2021/04/06 00:22:19;;;;;;;18.20;12.52;;;;;;;7.95;100.00;100367.91;5038067;28;20025;-73
2021/04/06 00:25:09;;;;;;;17.00;12.77;;;;;;;7.88;100.00;100360.19;5037716;28;20442;-74
2021/04/06 00:27:56;;;;;;;16.92;12.70;;;;;;;8.05;100.00;100351.28;5037027;28;20085;-73
2021/04/06 00:30:42;;;;;;;16.05;12.50;;;;;;;7.97;100.00;100344.41;5022527;28;20049;-74
2021/04/06 00:33:51;;;;;;;16.33;12.27;;;;;;;8.28;100.00;100337.94;5037184;28;20018;-74
2021/04/06 00:36:38;;;;;;;15.52;12.07;;;;;;;8.14;100.00;100335.50;5036912;28;20402;-73
2021/04/06 00:39:34;;;;;;;14.57;12.07;;;;;;;8.21;100.00;100331.94;5036555;28;20021;-73
2021/04/06 00:42:20;;;;;;;17.50;12.40;;;;;;;8.16;100.00;100327.63;5037091;28;20033;-73
2021/04/06 00:45:16;;;;;;;15.70;12.02;;;;;;;7.91;100.00;100314.06;5036931;28;20032;-73
2021/04/06 00:48:09;;;;;;;15.52;11.88;;;;;;;7.68;100.00;100317.84;5036488;28;20423;-73
2021/04/06 00:51:19;;;;;;;17.45;12.55;;;;;;;8.01;100.00;100313.06;5036657;28;20107;-73
2021/04/06 00:54:07;;;;;;;15.70;11.77;;;;;;;7.79;100.00;100297.69;5022846;28;20095;-73
2021/04/06 00:56:58;;;;;;;16.17;12.07;;;;;;;7.94;100.00;100298.38;5036639;28;20033;-73
2021/04/06 01:00:12;;;;;;;17.10;12.10;;;;;;;7.88;100.00;100289.78;5036281;28;20456;-73
2021/04/06 01:03:07;;;;;;;17.58;12.30;;;;;;;8.10;100.00;100291.19;5036291;28;20045;-74
2021/04/06 01:05:58;;;;;;;17.25;12.40;;;;;;;7.92;100.00;100289.69;5021507;28;20130;-73
2021/04/06 01:08:44;;;;;;;18.27;13.30;;;;;;;7.89;100.00;100288.88;5035882;28;20104;-74
2021/04/06 01:11:31;;;;;;;17.40;13.00;;;;;;;7.87;100.00;100277.59;5035575;28;20060;-73
2021/04/06 01:14:17;;;;;;;17.23;14.05;;;;;;;8.15;100.00;100274.59;5036273;28;20118;-73
2021/04/06 01:17:05;;;;;;;17.50;13.43;;;;;;;8.19;100.00;100264.94;5035850;28;20090;-73
2021/04/06 01:19:51;;;;;;;15.80;12.20;;;;;;;8.21;100.00;100260.63;5035707;28;20057;-72
2021/04/06 01:22:37;;;;;;;16.65;12.63;;;;;;;8.25;100.00;100264.91;5036470;28;20033;-74
2021/04/06 01:25:30;;;;;;;16.77;13.18;;;;;;;8.17;100.00;100256.31;5022312;28;20033;-73
2021/04/06 01:28:16;;;;;;;17.02;12.98;;;;;;;8.30;100.00;100257.84;5036361;28;20068;-73
2021/04/06 01:31:04;;;;;;;17.27;12.90;;;;;;;8.09;100.00;100252.94;5035722;28;20029;-73
2021/04/06 01:59:48;;;;;;;19.88;14.38;;;;;;;7.78;100.00;100234.28;5577507;22;20053;-74
2021/04/06 02:02:37;;;;;;;18.67;13.98;;;;;;;7.72;100.00;100228.28;5042741;28;20028;-73
2021/04/06 02:05:24;;;;;;;17.40;13.38;;;;;;;7.85;100.00;100228.09;5055463;28;20025;-73
2021/04/06 02:08:14;;;;;;;19.90;14.63;;;;;;;7.86;100.00;100219.38;5055277;28;20420;-73
2021/04/06 02:11:00;;;;;;;21.73;13.75;;;;;;;7.64;100.00;100222.31;5041502;28;20407;-73
2021/04/06 02:13:46;;;;;;;19.50;13.63;;;;;;;7.48;100.00;100224.22;5055177;28;20080;-73
2021/04/06 02:16:51;;;;;;;18.65;13.05;;;;;;;7.38;100.00;100211.34;5055267;28;20060;-73
2021/04/06 02:19:42;;;;;;;19.55;13.93;;;;;;;7.28;100.00;100214.97;5055236;28;20062;-73
2021/04/06 02:22:28;;;;;;;18.85;13.30;;;;;;;7.50;100.00;100209.47;5055324;28;20042;-73
2021/04/06 02:25:16;;;;;;;20.08;14.55;;;;;;;7.36;100.00;100208.75;5055282;28;20040;-73
2021/04/06 02:28:03;;;;;;;19.95;15.30;;;;;;;7.38;100.00;100209.63;5054802;28;20024;-74
2021/04/06 02:30:56;;;;;;;22.85;15.63;;;;;;;7.55;100.00;100204.19;5053416;28;20036;-73
2021/04/06 02:33:46;;;;;;;21.45;15.00;;;;;;;7.45;100.00;100195.63;5040250;28;20116;-73
2021/04/06 02:36:31;;;;;;;23.10;15.98;;;;;;;7.57;100.00;100194.59;5054266;28;20086;-73
2021/04/06 02:39:17;;;;;;;22.52;15.65;;;;;;;7.51;100.00;100195.53;5055288;28;20029;-73
2021/04/06 02:42:20;;;;;;;25.42;16.85;;;;;;;7.44;100.00;100187.81;5054766;28;20457;-73
2021/04/06 02:45:19;;;;;;;21.55;15.48;;;;;;;7.27;100.00;100171.56;5054552;28;20083;-73
2021/04/06 02:48:12;;;;;;;24.70;16.25;;;;;;;7.10;100.00;100174.38;5039990;28;20181;-73
2021/04/06 02:50:58;;;;;;;24.23;16.55;;;;;;;7.14;100.00;100176.06;5054353;28;20033;-73
2021/04/06 02:53:50;;;;;;;20.67;15.85;;;;;;;7.14;100.00;100168.22;5054380;28;20032;-73
2021/04/06 02:56:38;;;;;;;21.80;15.70;;;;;;;6.88;100.00;100172.03;5053524;28;20406;-73
2021/04/06 02:59:24;;;;;;;21.92;14.98;;;;;;;6.67;100.00;100164.47;5054243;28;20044;-73
2021/04/06 03:02:09;;;;;;;20.42;14.93;;;;;;;6.93;100.00;100170.22;5053570;28;20026;-75
2021/04/06 03:04:55;;;;;;;19.65;14.77;;;;;;;7.21;100.00;100163.81;5054373;28;20078;-73
2021/04/06 03:07:48;;;;;;;22.55;15.35;;;;;;;7.12;100.00;100166.53;5054099;28;20086;-74
2021/04/06 03:10:35;;;;;;;19.92;15.18;;;;;;;7.27;100.00;100168.97;5054172;28;20029;-73
2021/04/06 03:13:24;;;;;;;19.17;15.02;;;;;;;7.26;100.00;100162.00;5053563;28;20029;-73
2021/04/06 03:16:11;;;;;;;23.05;16.52;;;;;;;7.10;100.00;100157.84;5054129;28;20127;-73
2021/04/06 03:19:02;;;;;;;20.00;14.90;;;;;;;6.92;100.00;100152.88;5054489;28;20036;-73
2021/04/06 03:21:48;;;;;;;20.65;15.80;;;;;;;7.07;100.00;100155.31;5053284;28;20363;-73
2021/04/06 03:24:34;;;;;;;20.25;14.63;;;;;;;6.97;100.00;100149.34;5054107;28;20397;-74
2021/04/06 03:27:30;;;;;;;22.42;16.15;;;;;;;6.70;100.00;100152.28;5054520;28;20417;-73
2021/04/06 03:30:37;;;;;;;23.73;16.13;;;;;;;6.79;100.00;100152.16;5053912;28;20044;-74
2021/04/06 03:33:30;;;;;;;27.13;18.75;;;;;;;6.96;100.00;100154.56;5053842;28;20453;-73
2021/04/06 03:36:23;;;;;;;25.83;17.92;;;;;;;7.14;100.00;100156.94;5038747;28;20113;-72
2021/04/06 03:39:09;;;;;;;23.30;17.05;;;;;;;7.10;100.00;100150.91;5053825;28;20024;-73
2021/04/06 03:41:55;;;;;;;19.90;14.35;;;;;;;6.92;100.00;100145.97;5053219;28;20048;-73
2021/04/06 03:44:40;;;;;;;20.85;15.88;;;;;;;6.94;100.00;100153.72;5053529;28;20526;-73
2021/04/06 03:47:26;;;;;;;19.88;14.70;;;;;;;6.73;100.00;100153.97;5053752;28;20366;-72
2021/04/06 03:50:12;;;;;;;23.33;16.48;;;;;;;6.55;100.00;100147.22;5053519;28;20090;-73
2021/04/06 03:53:06;;;;;;;25.02;19.60;;;;;;;6.31;100.00;100157.03;5053550;28;20095;-74
2021/04/06 03:56:11;;;;;;;24.25;18.23;;;;;;;6.48;100.00;100160.31;5053438;28;20032;-73
2021/04/06 03:58:58;;;;;;;23.67;17.45;;;;;;;6.69;100.00;100154.88;5053747;28;20049;-73
2021/04/06 04:01:43;;;;;;;24.83;16.45;;;;;;;6.99;100.00;100152.78;5039357;28;20025;-74
2021/04/06 04:04:29;;;;;;;21.60;16.58;;;;;;;7.08;100.00;100154.44;5053568;28;20094;-74
2021/04/06 04:07:15;;;;;;;22.55;16.77;;;;;;;6.97;100.00;100154.56;5053482;28;20408;-73
2021/04/06 04:10:07;;;;;;;21.50;16.77;;;;;;;7.13;100.00;100163.03;5053348;28;20358;-74
2021/04/06 04:12:53;;;;;;;24.45;18.23;;;;;;;7.32;100.00;100161.94;5053222;28;20051;-74
2021/04/06 04:15:39;;;;;;;23.60;18.10;;;;;;;7.37;100.00;100154.91;5053499;28;20118;-73
2021/04/06 04:18:25;;;;;;;25.95;18.63;;;;;;;7.16;100.00;100155.19;5038846;28;20062;-74
2021/04/06 04:21:12;;;;;;;28.20;19.38;;;;;;;7.46;100.00;100155.66;5053438;28;20052;-72
2021/04/06 04:23:57;;;;;;;28.65;18.98;;;;;;;7.47;100.00;100165.19;5039085;28;20028;-73
2021/04/06 04:26:43;;;;;;;37.38;21.73;;;;;;;7.53;100.00;100165.13;5037784;28;20418;-74
2021/04/06 04:29:29;;;;;;;28.88;20.02;;;;;;;7.66;100.00;100164.03;5038605;28;20029;-72
2021/04/06 04:32:15;;;;;;;35.60;20.83;;;;;;;7.56;100.00;100169.41;5052444;28;20059;-72
2021/04/06 04:35:00;;;;;;;30.05;22.27;;;;;;;7.43;100.00;100160.06;5053898;28;20025;-74
2021/04/06 04:37:46;;;;;;;35.05;23.80;;;;;;;7.59;100.00;100159.78;5052990;28;20029;-74
2021/04/06 04:40:33;;;;;;;29.40;22.70;;;;;;;7.82;100.00;100157.72;5053402;28;20032;-73
2021/04/06 04:43:19;;;;;;;29.95;20.65;;;;;;;7.49;100.00;100157.34;5053249;28;20456;-73
2021/04/06 04:46:04;;;;;;;27.48;18.90;;;;;;;7.72;100.00;100150.06;5053371;28;20039;-73
2021/04/06 04:48:50;;;;;;;30.20;20.08;;;;;;;7.88;100.00;100154.16;5038665;28;20402;-75
2021/04/06 04:51:36;;;;;;;30.98;20.38;;;;;;;7.90;100.00;100154.97;5052821;28;20059;-73
2021/04/06 04:54:22;;;;;;;28.20;20.45;;;;;;;8.11;100.00;100154.63;5053866;28;20040;-74
2021/04/06 04:57:07;;;;;;;28.63;20.38;;;;;;;8.04;100.00;100159.09;5056925;28;20033;-74
2021/04/06 04:59:53;;;;;;;30.23;21.23;;;;;;;8.00;100.00;100156.56;5056450;28;20430;-74
2021/04/06 05:02:39;;;;;;;30.63;20.95;;;;;;;8.07;100.00;100155.56;5056232;28;20326;-73
2021/04/06 05:05:25;;;;;;;30.95;20.58;;;;;;;8.19;100.00;100155.38;5055922;28;20089;-74
2021/04/06 05:08:11;;;;;;;36.50;20.73;;;;;;;8.10;100.00;100145.97;5056287;28;20063;-73
2021/04/06 05:10:57;;;;;;;31.60;19.45;;;;;;;8.16;100.00;100147.63;5056658;28;20025;-74
2021/04/06 05:13:42;;;;;;;29.65;20.17;;;;;;;8.14;100.00;100145.03;5056069;28;20036;-75
2021/04/06 05:16:29;;;;;;;27.15;18.65;;;;;;;8.13;100.00;100145.06;5056574;28;20455;-74
2021/04/06 05:19:14;;;;;;;26.45;18.05;;;;;;;8.55;100.00;100139.09;5055873;28;20033;-74
2021/04/06 05:22:00;;;;;;;31.45;18.67;;;;;;;8.54;100.00;100135.63;5056120;28;20021;-73
2021/04/06 05:24:46;;;;;;;31.00;19.92;;;;;;;9.00;100.00;100136.44;5042380;28;20036;-74
2021/04/06 05:27:32;;;;;;;33.70;22.25;;;;;;;8.65;100.00;100143.28;5055327;28;20036;-74
2021/04/06 05:30:18;;;;;;;31.10;20.40;;;;;;;8.61;100.00;100141.59;5055779;28;20091;-75
2021/04/06 05:33:05;;;;;;;32.03;18.85;;;;;;;8.39;100.00;100137.66;5055905;28;20126;-74
2021/04/06 05:35:51;;;;;;;32.08;20.13;;;;;;;8.98;100.00;100137.38;5056278;28;20029;-74
2021/04/06 05:38:37;;;;;;;30.40;20.05;;;;;;;8.80;100.00;100135.16;5055576;28;20063;-74
2021/04/06 05:41:23;;;;;;;30.27;20.05;;;;;;;8.64;100.00;100131.13;5055965;28;20017;-74
2021/04/06 05:44:10;;;;;;;27.50;19.45;;;;;;;9.17;100.00;100125.66;5054771;28;20029;-74
2021/04/06 05:46:59;;;;;;;34.72;21.50;;;;;;;8.37;100.00;100118.56;5055230;28;20028;-74
2021/04/06 05:49:46;;;;;;;38.40;22.92;;;;;;;8.96;100.00;100116.50;5055057;28;20025;-75
2021/04/06 05:52:33;;;;;;;37.63;24.02;;;;;;;8.99;100.00;100119.06;5055631;28;20453;-74
2021/04/06 05:55:20;;;;;;;40.25;25.30;;;;;;;9.41;100.00;100114.69;5055537;28;20040;-74
2021/04/06 05:58:05;;;;;;;48.08;27.23;;;;;;;9.59;100.00;100112.50;5055325;28;20029;-74
2021/04/06 06:00:52;;;;;;;42.40;26.10;;;;;;;9.29;100.00;100120.19;5055436;28;20045;-74
2021/04/06 06:03:38;;;;;;;37.58;23.50;;;;;;;9.45;100.00;100116.31;5055418;28;20421;-74
2021/04/06 06:06:24;;;;;;;35.10;22.98;;;;;;;9.60;100.00;100106.38;5055140;28;20029;-74
2021/04/06 06:09:12;;;;;;;28.85;21.83;;;;;;;10.10;100.00;100098.16;5055381;28;20535;-76
2021/04/06 06:12:12;;;;;;;30.58;22.17;;;;;;;10.31;100.00;100091.53;5054799;28;20055;-74
2021/04/06 06:15:11;;;;;;;31.13;20.02;;;;;;;10.32;100.00;100088.00;5055092;28;20024;-74
2021/04/06 06:18:04;;;;;;;22.05;16.15;;;;;;;10.26;100.00;100085.56;5055261;28;20036;-75
2021/04/06 06:20:52;;;;;;;24.23;17.50;;;;;;;10.91;100.00;100089.84;5054421;28;20122;-75
2021/04/06 06:23:38;;;;;;;21.90;14.93;;;;;;;10.67;100.00;100077.44;5040475;28;20048;-74
2021/04/06 06:26:24;;;;;;;22.42;15.75;;;;;;;10.95;100.00;100083.63;5054071;28;20519;-75
2021/04/06 06:29:17;;;;;;;16.80;12.20;;;;;;;11.23;100.00;100083.66;5054982;28;20046;-74
2021/04/06 06:32:03;;;;;;;13.70;11.25;;;;;;;10.89;100.00;100080.31;5054175;28;20029;-75
2021/04/06 06:34:50;;;;;;;16.90;11.10;;;;;;;11.22;100.00;100085.44;5054962;28;20465;-74
2021/04/06 06:37:36;;;;;;;12.57;10.32;;;;;;;11.59;100.00;100085.16;5039994;28;20029;-74
2021/04/06 06:40:23;;;;;;;17.15;10.43;;;;;;;11.70;100.00;100086.53;5054901;28;20369;-74
2021/04/06 06:43:14;;;;;;;13.25;10.43;;;;;;;11.14;100.00;100081.31;5054639;28;20059;-74
2021/04/06 06:46:00;;;;;;;15.98;11.43;;;;;;;11.70;100.00;100080.47;5054626;28;20037;-74
2021/04/06 06:49:03;;;;;;;15.32;10.68;;;;;;;11.67;100.00;100068.28;5054614;28;20025;-74
2021/04/06 06:51:48;;;;;;;13.82;10.00;;;;;;;11.44;100.00;100069.88;5054493;28;20029;-73
2021/04/06 06:54:40;;;;;;;13.95;10.55;;;;;;;12.05;100.00;100075.75;5054075;28;20035;-75
2021/04/06 06:57:27;;;;;;;22.05;13.75;;;;;;;11.99;100.00;100075.97;5039311;28;20025;-75
2021/04/06 07:00:17;;;;;;;25.77;16.38;;;;;;;11.63;100.00;100073.69;5053961;28;20110;-75
2021/04/06 07:03:14;;;;;;;22.65;16.27;;;;;;;11.87;100.00;100065.88;5053974;28;20370;-75
2021/04/06 07:06:22;;;;;;;22.27;16.00;;;;;;;12.34;100.00;100066.91;5053728;28;20103;-74
2021/04/06 07:09:30;;;;;;;24.30;15.50;;;;;;;12.18;100.00;100079.69;5053640;28;20033;-75
2021/04/06 07:12:17;;;;;;;20.33;14.43;;;;;;;12.10;100.00;100071.19;5053393;28;20195;-74
2021/04/06 07:15:03;;;;;;;21.77;14.85;;;;;;;12.14;100.00;100072.81;5054792;28;20100;-74
2021/04/06 07:17:50;;;;;;;20.52;14.43;;;;;;;11.89;100.00;100066.69;5038381;28;20039;-74
2021/04/06 07:20:51;;;;;;;18.10;13.73;;;;;;;11.88;100.00;100057.09;5039007;28;20138;-75
2021/04/06 07:23:57;;;;;;;18.00;13.20;;;;;;;12.35;100.00;100069.47;5054002;28;20041;-74
2021/04/06 07:26:43;;;;;;;17.50;13.60;;;;;;;12.80;100.00;100074.84;5041638;28;20031;-74
2021/04/06 07:29:30;;;;;;;22.33;14.32;;;;;;;13.43;100.00;100072.44;5053813;28;20445;-74
2021/04/06 07:32:15;;;;;;;18.90;13.60;;;;;;;13.00;100.00;100078.50;5052695;28;20032;-74
2021/04/06 07:35:01;;;;;;;16.30;13.13;;;;;;;12.51;100.00;100073.28;5053433;28;20028;-74
2021/04/06 07:37:47;;;;;;;18.65;13.05;;;;;;;13.19;100.00;100076.88;5053478;28;20032;-75
2021/04/06 07:40:34;;;;;;;19.02;13.50;;;;;;;13.12;100.00;100071.91;5054074;28;20021;-74
2021/04/06 07:43:21;;;;;;;16.17;12.77;;;;;;;12.87;100.00;100068.44;5054112;28;20025;-74
2021/04/06 07:46:09;;;;;;;21.10;13.15;;;;;;;13.22;100.00;100066.22;5053859;28;20053;-75
2021/04/06 07:48:59;;;;;;;15.57;11.75;;;;;;;13.63;100.00;100060.19;5024754;28;20032;-74
2021/04/06 07:51:45;;;;;;;19.88;11.75;;;;;;;13.65;100.00;100061.00;5052957;28;20366;-74
2021/04/06 07:54:30;;;;;;;16.15;11.27;;;;;;;13.66;100.00;100062.72;5039429;28;20488;-74
2021/04/06 07:57:17;;;;;;;13.30;10.75;;;;;;;13.65;100.00;100061.00;5038704;28;20039;-74
2021/04/06 08:00:03;;;;;;;12.55;10.30;;;;;;;13.67;100.00;100059.16;5052664;28;20087;-74
2021/04/06 08:02:49;;;;;;;13.75;10.35;;;;;;;13.83;100.00;100060.25;5053421;28;20366;-74
2021/04/06 08:05:35;;;;;;;14.88;10.75;;;;;;;14.36;100.00;100045.69;5053092;28;20134;-74
2021/04/06 08:08:39;;;;;;;13.63;10.63;;;;;;;14.87;98.68;100049.59;5037949;28;20029;-75
2021/04/06 08:12:02;;;;;;;13.35;10.25;;;;;;;15.14;96.31;100050.97;5052805;28;20449;-75
2021/04/06 08:14:59;;;;;;;12.77;10.65;;;;;;;15.02;96.67;100041.00;5053277;28;20206;-74
2021/04/06 08:17:59;;;;;;;16.10;10.95;;;;;;;16.10;91.21;100040.94;5037790;28;20028;-74
2021/04/06 08:20:46;;;;;;;14.95;10.88;;;;;;;16.36;88.38;100035.19;5052634;28;20017;-74
2021/04/06 08:23:46;;;;;;;13.18;10.77;;;;;;;16.08;88.73;100035.75;5053218;28;20033;-74
2021/04/06 08:26:34;;;;;;;10.18;9.00;;;;;;;16.89;84.69;100030.59;5038078;28;20053;-75
2021/04/06 08:29:23;;;;;;;11.48;9.43;;;;;;;16.59;85.78;100025.16;5054049;28;20036;-75
2021/04/06 08:32:16;;;;;;;11.95;9.43;;;;;;;16.67;83.20;100019.44;5056794;28;20028;-75
2021/04/06 08:35:02;;;;;;;12.32;10.20;;;;;;;16.46;85.50;100025.88;5056026;28;20032;-75
2021/04/06 08:37:48;;;;;;;12.73;9.43;;;;;;;16.93;84.48;100025.09;5056584;28;20091;-75
2021/04/06 08:40:48;;;;;;;11.77;9.50;;;;;;;17.28;85.21;100017.84;5057068;28;20032;-74
2021/04/06 08:43:42;;;;;;;12.63;10.15;;;;;;;17.55;83.20;100016.31;5041951;28;20036;-75
2021/04/06 08:46:39;;;;;;;15.00;10.13;;;;;;;17.42;79.87;100017.94;5057265;28;20398;-75
2021/04/06 08:49:27;;;;;;;12.27;9.85;;;;;;;17.54;78.68;100011.94;5056531;28;20025;-76
2021/04/06 08:52:15;;;;;;;11.27;9.27;;;;;;;17.37;76.78;100006.72;5056438;28;20108;-76
2021/04/06 08:55:12;;;;;;;9.65;8.65;;;;;;;17.84;74.68;99995.16;5042433;28;20029;-75
2021/04/06 08:57:59;;;;;;;11.75;10.02;;;;;;;17.59;75.40;99999.28;5042205;28;20033;-75
2021/04/06 09:00:45;;;;;;;11.95;9.23;;;;;;;17.52;76.31;99984.72;5041783;28;20041;-76
2021/04/06 09:03:31;;;;;;;10.02;8.40;;;;;;;18.09;75.58;99991.91;5056781;28;20029;-75
2021/04/06 09:06:17;;;;;;;10.65;9.57;;;;;;;17.74;75.64;99982.53;5041953;28;20025;-75
2021/04/06 09:09:22;;;;;;;12.38;8.88;;;;;;;17.74;76.43;99982.53;5055427;28;20029;-74
2021/04/06 09:12:15;;;;;;;11.75;9.45;;;;;;;18.15;76.20;99975.63;5056902;28;20064;-73
2021/04/06 09:15:03;;;;;;;10.77;9.52;;;;;;;17.97;74.65;99974.09;5056281;28;20499;-74
2021/04/06 09:17:49;;;;;;;14.20;9.57;;;;;;;17.98;75.46;99970.47;5041580;28;20378;-73
2021/04/06 09:20:34;;;;;;;12.50;9.90;;;;;;;17.75;75.88;99963.88;5055864;28;20013;-73
2021/04/06 09:23:28;;;;;;;10.98;8.65;;;;;;;17.19;74.04;99955.66;5056114;28;20445;-73
2021/04/06 09:26:14;;;;;;;11.13;9.57;;;;;;;18.18;72.94;99962.19;5056138;28;20032;-73
2021/04/06 09:29:11;;;;;;;8.80;7.90;;;;;;;17.46;70.76;99955.91;5056712;28;20040;-73
2021/04/06 09:32:06;;;;;;;10.85;9.20;;;;;;;18.02;71.29;99951.66;5055106;28;20028;-72
2021/04/06 09:34:51;;;;;;;10.85;8.57;;;;;;;18.36;70.94;99946.03;5055527;28;20115;-72
2021/04/06 09:37:37;;;;;;;10.43;8.60;;;;;;;18.35;70.87;99946.13;5055718;28;20039;-73
2021/04/06 09:40:35;;;;;;;7.80;7.00;;;;;;;18.01;71.64;99943.81;5055426;28;20017;-74
2021/04/06 09:43:21;;;;;;;7.65;5.93;;;;;;;17.81;69.11;99942.31;5041058;28;20024;-72
2021/04/06 09:46:06;;;;;;;7.97;6.57;;;;;;;17.72;68.74;99937.56;5055609;28;20166;-72
2021/04/06 09:48:54;;;;;;;7.53;6.32;;;;;;;17.63;70.80;99916.91;5054987;28;20433;-73
2021/04/06 09:51:51;;;;;;;8.55;6.68;;;;;;;17.87;70.96;99915.47;5056013;28;20029;-72
2021/04/06 09:54:42;;;;;;;8.43;6.72;;;;;;;17.28;70.93;99919.88;5040761;28;20021;-73
2021/04/06 09:57:37;;;;;;;7.05;6.32;;;;;;;18.19;69.57;99917.03;5055509;28;20032;-73
2021/04/06 10:00:31;;;;;;;9.05;7.05;;;;;;;17.88;72.05;99911.88;5040081;28;20052;-72
2021/04/06 10:03:23;;;;;;;9.57;6.78;;;;;;;17.59;74.62;99915.41;5055808;28;20052;-73
2021/04/06 10:06:10;;;;;;;8.55;7.25;;;;;;;17.55;73.54;99915.66;5054673;28;20424;-72
2021/04/06 10:08:56;;;;;;;7.38;6.60;;;;;;;17.92;72.28;99920.50;5054411;28;20031;-72
2021/04/06 10:11:42;;;;;;;7.35;6.65;;;;;;;17.62;72.38;99906.41;5054851;28;20032;-72
2021/04/06 10:14:31;;;;;;;7.90;6.70;;;;;;;17.40;71.95;99898.00;5054827;28;20090;-73
2021/04/06 10:17:23;;;;;;;8.15;6.60;;;;;;;17.93;71.63;99901.00;5055886;28;20033;-73
2021/04/06 10:20:10;;;;;;;7.32;6.43;;;;;;;17.86;69.51;99897.00;5054194;28;20194;-73
2021/04/06 10:22:57;;;;;;;7.13;5.65;;;;;;;17.97;69.18;99895.41;5054676;28;20511;-73
2021/04/06 10:25:45;;;;;;;6.75;5.38;;;;;;;18.06;67.49;99888.72;5055412;28;20464;-73
2021/04/06 10:28:35;;;;;;;6.70;5.32;;;;;;;18.27;64.54;99896.19;5054934;28;20400;-73
2021/04/06 10:31:21;;;;;;;6.78;5.28;;;;;;;18.46;64.80;99886.19;5040308;28;20097;-74
2021/04/06 10:34:07;;;;;;;5.75;4.90;;;;;;;18.17;61.96;99899.53;5054302;28;20037;-74
2021/04/06 10:37:10;;;;;;;7.85;5.57;;;;;;;17.42;62.77;99888.19;5054370;28;20039;-74
2021/04/06 10:39:55;;;;;;;6.00;4.70;;;;;;;17.75;63.09;99881.75;5054807;28;20059;-75
2021/04/06 10:42:42;;;;;;;6.25;5.03;;;;;;;18.10;62.26;99871.66;5039879;28;20056;-74
2021/04/06 10:45:30;;;;;;;6.22;4.15;;;;;;;18.54;61.15;99864.47;5054549;28;20048;-74
2021/04/06 10:48:21;;;;;;;8.93;4.47;;;;;;;18.66;61.28;99869.84;5055140;28;20029;-74
2021/04/06 10:51:14;;;;;;;5.85;4.40;;;;;;;18.73;61.68;99857.91;5054919;28;20040;-73
2021/04/06 10:54:07;;;;;;;9.98;5.30;;;;;;;18.52;61.41;99861.06;5052730;28;20025;-75
2021/04/06 10:56:55;;;;;;;5.65;4.72;;;;;;;18.81;61.87;99860.91;5039028;28;20025;-74
2021/04/06 10:59:42;;;;;;;10.32;5.30;;;;;;;18.53;61.46;99863.63;5054147;28;20052;-74
2021/04/06 11:02:28;;;;;;;12.60;6.90;;;;;;;18.25;63.61;99853.00;5053391;28;20028;-74
2021/04/06 11:05:30;;;;;;;10.48;6.97;;;;;;;19.29;61.14;99856.88;5041062;28;20032;-75
2021/04/06 11:08:17;;;;;;;6.82;4.78;;;;;;;18.99;62.38;99854.41;5055029;28;20064;-74
2021/04/06 11:11:18;;;;;;;5.80;5.00;;;;;;;19.30;61.54;99849.75;5054358;28;20116;-74
2021/04/06 11:14:11;;;;;;;6.38;4.93;;;;;;;19.55;59.62;99848.00;5053544;28;20063;-75
2021/04/06 11:16:59;;;;;;;6.13;5.38;;;;;;;19.07;59.77;99849.47;5053643;28;20033;-75
2021/04/06 11:19:46;;;;;;;6.82;4.88;;;;;;;19.15;59.10;99847.16;5053836;28;20434;-74
2021/04/06 11:22:32;;;;;;;7.85;4.88;;;;;;;19.01;58.84;99839.22;5039450;28;20025;-74
2021/04/06 11:25:18;;;;;;;5.68;4.55;;;;;;;19.29;58.42;99832.13;5052943;28;20039;-74
2021/04/06 11:28:04;;;;;;;6.38;4.75;;;;;;;19.50;58.30;99820.91;5054444;28;20021;-74
2021/04/06 11:30:50;;;;;;;5.57;4.80;;;;;;;18.40;55.55;99814.94;5039088;28;20460;-74
2021/04/06 11:33:35;;;;;;;5.68;4.65;;;;;;;18.77;56.86;99806.31;5054166;28;20028;-73
2021/04/06 11:36:21;;;;;;;7.03;5.50;;;;;;;19.45;55.92;99809.72;5053086;28;20036;-74
2021/04/06 11:39:09;;;;;;;7.35;4.88;;;;;;;19.85;54.62;99808.69;5053775;28;20043;-73
2021/04/06 11:41:55;;;;;;;7.20;5.10;;;;;;;19.56;53.98;99803.72;5053924;28;20036;-73
2021/04/06 11:44:42;;;;;;;6.07;4.70;;;;;;;19.15;51.55;99802.00;5038019;28;20040;-74
2021/04/06 11:47:28;;;;;;;8.98;4.97;;;;;;;19.19;51.44;99795.53;5053789;28;20032;-74
2021/04/06 11:50:13;;;;;;;5.38;4.75;;;;;;;19.07;53.46;99788.38;5038674;28;20449;-73
2021/04/06 11:52:59;;;;;;;7.55;4.82;;;;;;;20.16;51.33;99789.66;5053018;28;20067;-73
2021/04/06 11:55:45;;;;;;;5.90;5.22;;;;;;;20.51;51.19;99782.66;5052398;28;20108;-74
2021/04/06 11:58:31;;;;;;;7.43;5.10;;;;;;;19.84;52.23;99775.09;5053049;28;20033;-74
2021/04/06 12:01:17;;;;;;;10.10;5.82;;;;;;;20.24;52.30;99775.81;5052604;28;20029;-73
2021/04/06 12:04:03;;;;;;;5.22;4.72;;;;;;;20.44;51.10;99777.88;5053634;28;20039;-73
2021/04/06 12:06:49;;;;;;;6.88;4.88;;;;;;;20.53;50.52;99775.41;5057085;28;20025;-73
2021/04/06 12:09:35;;;;;;;9.77;4.68;;;;;;;20.96;50.74;99763.31;5056793;28;20449;-74
2021/04/06 12:12:21;;;;;;;6.57;5.00;;;;;;;20.17;50.75;99766.59;5056085;28;20474;-74
2021/04/06 12:15:07;;;;;;;6.30;4.57;;;;;;;20.00;51.45;99757.09;5057295;28;20365;-75
2021/04/06 12:17:53;;;;;;;5.97;4.88;;;;;;;20.17;51.54;99748.78;5058293;28;20453;-72
2021/04/06 12:20:41;;;;;;;6.82;4.82;;;;;;;19.72;52.40;99744.06;5057156;28;20037;-73
2021/04/06 12:23:27;;;;;;;7.60;5.78;;;;;;;19.30;55.09;99732.91;5056936;28;20029;-73
2021/04/06 12:26:13;;;;;;;6.45;5.20;;;;;;;19.81;55.26;99730.09;5056480;28;20037;-73
2021/04/06 12:28:59;;;;;;;6.47;5.10;;;;;;;20.38;53.53;99722.47;5057263;28;20021;-73
2021/04/06 12:31:45;;;;;;;7.28;5.30;;;;;;;19.96;54.67;99717.53;5056026;28;20040;-72
2021/04/06 12:34:30;;;;;;;6.38;4.78;;;;;;;20.05;53.27;99717.72;5042730;28;20053;-73
2021/04/06 12:37:16;;;;;;;6.78;4.55;;;;;;;19.89;52.92;99706.50;5056565;28;20039;-72
2021/04/06 12:40:04;;;;;;;5.97;4.38;;;;;;;20.02;52.16;99701.16;5056944;28;20025;-71
2021/04/06 12:42:50;;;;;;;7.13;4.13;;;;;;;19.93;51.38;99699.16;5057467;28;20017;-74
2021/04/06 12:45:36;;;;;;;7.70;4.60;;;;;;;19.86;49.24;99690.78;5041508;28;20021;-73
2021/04/06 12:48:22;;;;;;;6.75;4.55;;;;;;;19.99;49.80;99686.28;5041883;28;20410;-74
2021/04/06 12:51:10;;;;;;;4.95;4.38;;;;;;;20.23;48.04;99676.56;5055871;28;20025;-73
2021/04/06 12:53:56;;;;;;;5.43;4.07;;;;;;;19.51;49.56;99667.66;5056612;28;20033;-73
2021/04/06 12:56:42;;;;;;;7.82;4.43;;;;;;;19.13;50.76;99663.16;5042593;28;20040;-74
2021/04/06 12:59:27;;;;;;;4.65;4.00;;;;;;;19.39;50.84;99657.88;5057318;28;20063;-72
2021/04/06 13:02:13;;;;;;;6.13;4.00;;;;;;;19.01;51.04;99647.25;5055710;28;20366;-73
2021/04/06 13:05:00;;;;;;;7.18;4.55;;;;;;;18.90;52.08;99640.00;5055484;28;20091;-73
2021/04/06 13:07:46;;;;;;;5.55;4.10;;;;;;;19.10;51.46;99636.00;5056096;28;20113;-73
2021/04/06 13:10:32;;;;;;;6.18;4.45;;;;;;;19.52;50.57;99635.66;5041579;28;20366;-72
2021/04/06 13:13:17;;;;;;;5.78;3.95;;;;;;;18.64;51.42;99643.56;5055997;28;20029;-73
2021/04/06 13:16:03;;;;;;;6.13;4.35;;;;;;;18.95;51.35;99634.38;5055520;28;20036;-71
2021/04/06 13:18:49;;;;;;;6.40;4.18;;;;;;;18.44;50.46;99632.59;5041029;28;20126;-72
2021/04/06 13:21:35;;;;;;;6.30;4.40;;;;;;;19.00;51.18;99627.81;5055518;28;20017;-72
2021/04/06 13:24:21;;;;;;;6.68;4.60;;;;;;;18.63;53.38;99617.16;5040966;28;20036;-72